This is the latest recevied weather packets stored in our database for station/object SQ2ODE-13. If no packets are shown the sender has not sent any weather packets the latest 10 day(s).
| Time | Temp. | Humidity | Pressure | Rain* | Wind** | Luminosity | Snow |
|---|---|---|---|---|---|---|---|
| 1777703466 | - | - | 1020.1 hPa | - | - | - | - |
| 1777701020 | - | - | 1020.1 hPa | - | - | - | - |
| 1777691746 | 9.44° C | 55% | 1020 hPa | - | - | - | - |
| 1777691137 | 9.44° C | 52% | 1020 hPa | - | - | - | - |
| 1777689320 | 10.56° C | 52% | 1020 hPa | - | - | - | - |
| 1777679736 | 12.78° C | 50% | 1020.6 hPa | - | - | - | - |
| 1777679132 | 12.78° C | 50% | 1020.6 hPa | - | - | - | - |
| 1777677920 | 13.33° C | 51% | 1020.7 hPa | - | - | - | - |
| 1777675555 | 13.89° C | 48% | 1020.8 hPa | - | - | - | - |
| 1777660570 | 18.33° C | 32% | 1020.2 hPa | - | - | - | - |
| 1777659417 | 20° C | 26% | 1020.1 hPa | - | - | - | - |
| 1777658735 | 21.67° C | 22% | 1020.2 hPa | - | - | - | - |
| 1777658131 | 22.22° C | 19% | 1020 hPa | - | - | - | - |
| 1777657552 | 22.78° C | 22% | 1020.1 hPa | - | - | - | - |
| 1777655716 | 24.44° C | 17% | 1020 hPa | - | - | - | - |
| 1777654589 | 25° C | 14% | 1020.1 hPa | - | - | - | - |
| 1777650946 | 25° C | 12% | 1020.6 hPa | - | - | - | - |
| 1777649743 | 24.44° C | 13% | 1020.7 hPa | - | - | - | - |
| 1777649134 | 24.44° C | 15% | 1020.8 hPa | - | - | - | - |
| 1777644365 | 25° C | 17% | 1021.5 hPa | - | - | - | - |
| 1777643158 | 23.89° C | 21% | 1021.5 hPa | - | - | - | - |
| 1777641951 | 23.89° C | 21% | 1021.8 hPa | - | - | - | - |
| 1777641346 | 22.78° C | 22% | 1021.9 hPa | - | - | - | - |
| 1777640140 | 23.89° C | 22% | 1022.1 hPa | - | - | - | - |
| 1777631749 | 20° C | 31% | 1023.1 hPa | - | - | - | - |
* Rain since midnight (hover to see other rain measurements)
** Current wind speed in m/s (hover to see current wind gust speed)